sensor_id;sensor_type;location;lat;lon;timestamp;P1;durP1;ratioP1;P2;durP2;ratioP2
42000;SDS011;27689;48.390;10.856;2022-12-20T00:00:29;46.15;;;32.03;;
42000;SDS011;27689;48.390;10.856;2022-12-20T00:03:12;49.40;;;31.77;;
42000;SDS011;27689;48.390;10.856;2022-12-20T00:08:41;53.30;;;32.70;;
42000;SDS011;27689;48.390;10.856;2022-12-20T00:11:26;45.00;;;30.00;;
42000;SDS011;27689;48.390;10.856;2022-12-20T00:14:11;43.08;;;28.10;;
42000;SDS011;27689;48.390;10.856;2022-12-20T00:16:55;43.50;;;28.63;;
42000;SDS011;27689;48.390;10.856;2022-12-20T00:19:38;40.92;;;27.05;;
42000;SDS011;27689;48.390;10.856;2022-12-20T00:22:22;39.50;;;25.17;;
42000;SDS011;27689;48.390;10.856;2022-12-20T00:25:06;34.92;;;25.17;;
42000;SDS011;27689;48.390;10.856;2022-12-20T00:27:51;37.38;;;26.70;;
42000;SDS011;27689;48.390;10.856;2022-12-20T00:30:35;32.45;;;23.38;;
42000;SDS011;27689;48.390;10.856;2022-12-20T00:33:18;30.77;;;21.17;;
42000;SDS011;27689;48.390;10.856;2022-12-20T00:36:03;32.08;;;22.60;;
42000;SDS011;27689;48.390;10.856;2022-12-20T00:38:48;31.33;;;22.42;;
42000;SDS011;27689;48.390;10.856;2022-12-20T00:41:33;31.17;;;22.77;;
42000;SDS011;27689;48.390;10.856;2022-12-20T00:44:18;31.65;;;22.60;;
42000;SDS011;27689;48.390;10.856;2022-12-20T00:47:02;33.22;;;21.55;;
42000;SDS011;27689;48.390;10.856;2022-12-20T00:49:46;31.48;;;21.30;;
42000;SDS011;27689;48.390;10.856;2022-12-20T00:52:30;29.15;;;21.55;;
42000;SDS011;27689;48.390;10.856;2022-12-20T00:55:14;29.35;;;20.65;;
42000;SDS011;27689;48.390;10.856;2022-12-20T00:57:57;28.80;;;19.55;;
42000;SDS011;27689;48.390;10.856;2022-12-20T01:00:42;31.80;;;21.55;;
42000;SDS011;27689;48.390;10.856;2022-12-20T01:03:26;27.53;;;19.67;;
42000;SDS011;27689;48.390;10.856;2022-12-20T01:06:10;29.40;;;20.13;;
42000;SDS011;27689;48.390;10.856;2022-12-20T01:08:55;25.58;;;19.52;;
42000;SDS011;27689;48.390;10.856;2022-12-20T01:11:39;31.10;;;20.50;;
42000;SDS011;27689;48.390;10.856;2022-12-20T01:14:23;33.80;;;23.42;;
42000;SDS011;27689;48.390;10.856;2022-12-20T01:17:07;30.77;;;22.60;;
42000;SDS011;27689;48.390;10.856;2022-12-20T01:19:51;28.00;;;20.13;;
42000;SDS011;27689;48.390;10.856;2022-12-20T01:22:35;24.90;;;18.00;;
42000;SDS011;27689;48.390;10.856;2022-12-20T01:25:19;26.90;;;18.52;;
42000;SDS011;27689;48.390;10.856;2022-12-20T01:28:03;28.38;;;20.77;;
42000;SDS011;27689;48.390;10.856;2022-12-20T01:30:47;25.75;;;18.10;;
42000;SDS011;27689;48.390;10.856;2022-12-20T01:33:31;25.13;;;16.80;;
42000;SDS011;27689;48.390;10.856;2022-12-20T01:36:16;23.13;;;17.33;;
42000;SDS011;27689;48.390;10.856;2022-12-20T01:39:12;25.80;;;17.48;;
42000;SDS011;27689;48.390;10.856;2022-12-20T01:41:58;20.95;;;16.33;;
42000;SDS011;27689;48.390;10.856;2022-12-20T01:47:27;24.88;;;16.13;;
42000;SDS011;27689;48.390;10.856;2022-12-20T01:50:14;20.73;;;15.70;;
42000;SDS011;27689;48.390;10.856;2022-12-20T01:52:59;21.02;;;15.02;;
42000;SDS011;27689;48.390;10.856;2022-12-20T01:55:45;20.02;;;14.88;;
42000;SDS011;27689;48.390;10.856;2022-12-20T01:58:30;21.33;;;15.38;;
42000;SDS011;27689;48.390;10.856;2022-12-20T02:01:16;20.33;;;14.73;;
42000;SDS011;27689;48.390;10.856;2022-12-20T02:04:00;17.80;;;14.85;;
42000;SDS011;27689;48.390;10.856;2022-12-20T02:06:46;22.20;;;15.52;;
42000;SDS011;27689;48.390;10.856;2022-12-20T02:09:31;21.90;;;16.23;;
42000;SDS011;27689;48.390;10.856;2022-12-20T02:12:24;24.95;;;16.38;;
42000;SDS011;27689;48.390;10.856;2022-12-20T02:18:51;21.00;;;15.13;;
42000;SDS011;27689;48.390;10.856;2022-12-20T02:25:12;18.75;;;14.23;;
42000;SDS011;27689;48.390;10.856;2022-12-20T02:28:14;23.25;;;17.73;;
42000;SDS011;27689;48.390;10.856;2022-12-20T02:31:10;26.30;;;17.67;;
42000;SDS011;27689;48.390;10.856;2022-12-20T02:33:56;30.00;;;20.08;;
42000;SDS011;27689;48.390;10.856;2022-12-20T02:36:41;25.73;;;19.33;;
42000;SDS011;27689;48.390;10.856;2022-12-20T02:39:26;24.17;;;16.50;;
42000;SDS011;27689;48.390;10.856;2022-12-20T02:42:13;24.48;;;16.40;;
42000;SDS011;27689;48.390;10.856;2022-12-20T02:45:07;21.20;;;15.43;;
42000;SDS011;27689;48.390;10.856;2022-12-20T02:48:03;26.52;;;18.73;;
42000;SDS011;27689;48.390;10.856;2022-12-20T02:50:51;21.05;;;15.60;;
42000;SDS011;27689;48.390;10.856;2022-12-20T02:53:38;24.65;;;16.85;;
42000;SDS011;27689;48.390;10.856;2022-12-20T03:02:38;26.50;;;16.70;;
42000;SDS011;27689;48.390;10.856;2022-12-20T03:05:43;20.90;;;13.93;;
42000;SDS011;27689;48.390;10.856;2022-12-20T03:08:29;18.10;;;14.43;;
42000;SDS011;27689;48.390;10.856;2022-12-20T03:11:13;19.48;;;13.60;;
42000;SDS011;27689;48.390;10.856;2022-12-20T03:13:57;20.13;;;14.45;;
42000;SDS011;27689;48.390;10.856;2022-12-20T03:16:41;21.52;;;15.20;;
42000;SDS011;27689;48.390;10.856;2022-12-20T03:19:25;20.15;;;15.32;;
42000;SDS011;27689;48.390;10.856;2022-12-20T03:22:09;18.85;;;14.35;;
42000;SDS011;27689;48.390;10.856;2022-12-20T03:24:53;16.75;;;13.00;;
42000;SDS011;27689;48.390;10.856;2022-12-20T03:27:37;20.77;;;14.20;;
42000;SDS011;27689;48.390;10.856;2022-12-20T03:30:21;18.08;;;14.27;;
42000;SDS011;27689;48.390;10.856;2022-12-20T03:33:05;17.17;;;14.25;;
42000;SDS011;27689;48.390;10.856;2022-12-20T03:35:49;19.08;;;13.88;;
42000;SDS011;27689;48.390;10.856;2022-12-20T03:38:33;18.60;;;14.05;;
42000;SDS011;27689;48.390;10.856;2022-12-20T03:41:17;18.65;;;14.27;;
42000;SDS011;27689;48.390;10.856;2022-12-20T03:44:02;17.05;;;13.27;;
42000;SDS011;27689;48.390;10.856;2022-12-20T03:46:46;19.95;;;13.98;;
42000;SDS011;27689;48.390;10.856;2022-12-20T03:49:30;18.73;;;13.82;;
42000;SDS011;27689;48.390;10.856;2022-12-20T03:52:14;19.38;;;15.68;;
42000;SDS011;27689;48.390;10.856;2022-12-20T03:54:58;17.25;;;13.05;;
42000;SDS011;27689;48.390;10.856;2022-12-20T03:57:42;18.58;;;13.10;;
42000;SDS011;27689;48.390;10.856;2022-12-20T04:00:26;18.08;;;14.07;;
42000;SDS011;27689;48.390;10.856;2022-12-20T04:03:10;20.92;;;14.77;;
42000;SDS011;27689;48.390;10.856;2022-12-20T04:05:54;18.42;;;13.50;;
42000;SDS011;27689;48.390;10.856;2022-12-20T04:08:38;17.75;;;13.00;;
42000;SDS011;27689;48.390;10.856;2022-12-20T04:11:22;17.98;;;12.80;;
42000;SDS011;27689;48.390;10.856;2022-12-20T04:14:06;19.25;;;13.07;;
42000;SDS011;27689;48.390;10.856;2022-12-20T04:16:49;20.53;;;14.47;;
42000;SDS011;27689;48.390;10.856;2022-12-20T04:19:34;20.73;;;13.50;;
42000;SDS011;27689;48.390;10.856;2022-12-20T04:22:18;17.65;;;13.23;;
42000;SDS011;27689;48.390;10.856;2022-12-20T04:25:02;20.15;;;13.82;;
42000;SDS011;27689;48.390;10.856;2022-12-20T04:27:45;16.00;;;12.43;;
42000;SDS011;27689;48.390;10.856;2022-12-20T04:30:29;16.23;;;12.93;;
42000;SDS011;27689;48.390;10.856;2022-12-20T04:33:13;19.58;;;14.85;;
42000;SDS011;27689;48.390;10.856;2022-12-20T04:35:57;18.75;;;14.07;;
42000;SDS011;27689;48.390;10.856;2022-12-20T04:38:41;20.35;;;13.68;;
42000;SDS011;27689;48.390;10.856;2022-12-20T04:41:25;16.45;;;12.30;;
42000;SDS011;27689;48.390;10.856;2022-12-20T04:44:09;18.58;;;12.73;;
42000;SDS011;27689;48.390;10.856;2022-12-20T04:46:53;16.90;;;12.35;;
42000;SDS011;27689;48.390;10.856;2022-12-20T04:49:36;18.27;;;13.47;;
42000;SDS011;27689;48.390;10.856;2022-12-20T04:52:20;17.70;;;12.57;;
42000;SDS011;27689;48.390;10.856;2022-12-20T04:55:23;15.52;;;11.48;;
42000;SDS011;27689;48.390;10.856;2022-12-20T04:58:07;15.27;;;11.95;;
42000;SDS011;27689;48.390;10.856;2022-12-20T05:00:51;18.02;;;12.93;;
42000;SDS011;27689;48.390;10.856;2022-12-20T05:03:35;14.40;;;11.23;;
42000;SDS011;27689;48.390;10.856;2022-12-20T05:06:19;17.35;;;11.32;;
42000;SDS011;27689;48.390;10.856;2022-12-20T05:09:03;14.98;;;11.60;;
42000;SDS011;27689;48.390;10.856;2022-12-20T05:11:47;14.70;;;11.20;;
42000;SDS011;27689;48.390;10.856;2022-12-20T05:14:31;14.73;;;11.63;;
42000;SDS011;27689;48.390;10.856;2022-12-20T05:17:16;14.73;;;11.27;;
42000;SDS011;27689;48.390;10.856;2022-12-20T05:20:00;16.67;;;11.82;;
42000;SDS011;27689;48.390;10.856;2022-12-20T05:22:44;14.23;;;11.50;;
42000;SDS011;27689;48.390;10.856;2022-12-20T05:25:48;13.68;;;10.68;;
42000;SDS011;27689;48.390;10.856;2022-12-20T05:28:45;16.45;;;11.85;;
42000;SDS011;27689;48.390;10.856;2022-12-20T05:31:29;14.80;;;11.35;;
42000;SDS011;27689;48.390;10.856;2022-12-20T05:34:14;16.45;;;11.13;;
42000;SDS011;27689;48.390;10.856;2022-12-20T05:36:59;13.65;;;10.48;;
42000;SDS011;27689;48.390;10.856;2022-12-20T05:39:43;12.85;;;10.32;;
42000;SDS011;27689;48.390;10.856;2022-12-20T05:42:27;13.80;;;10.35;;
42000;SDS011;27689;48.390;10.856;2022-12-20T05:45:10;15.45;;;10.75;;
42000;SDS011;27689;48.390;10.856;2022-12-20T05:47:54;13.82;;;10.43;;
42000;SDS011;27689;48.390;10.856;2022-12-20T05:50:38;15.63;;;11.05;;
42000;SDS011;27689;48.390;10.856;2022-12-20T05:53:22;16.88;;;10.07;;
42000;SDS011;27689;48.390;10.856;2022-12-20T05:56:07;12.18;;;9.95;;
42000;SDS011;27689;48.390;10.856;2022-12-20T05:58:50;12.02;;;9.40;;
42000;SDS011;27689;48.390;10.856;2022-12-20T06:01:34;11.80;;;9.13;;
42000;SDS011;27689;48.390;10.856;2022-12-20T06:04:19;13.82;;;10.00;;
42000;SDS011;27689;48.390;10.856;2022-12-20T06:07:04;14.05;;;10.30;;
42000;SDS011;27689;48.390;10.856;2022-12-20T06:09:49;13.77;;;9.85;;
42000;SDS011;27689;48.390;10.856;2022-12-20T06:12:33;13.25;;;9.55;;
42000;SDS011;27689;48.390;10.856;2022-12-20T06:15:17;13.15;;;10.18;;
42000;SDS011;27689;48.390;10.856;2022-12-20T06:18:01;11.27;;;9.07;;
42000;SDS011;27689;48.390;10.856;2022-12-20T06:20:49;12.80;;;10.02;;
42000;SDS011;27689;48.390;10.856;2022-12-20T06:23:34;16.23;;;10.65;;
42000;SDS011;27689;48.390;10.856;2022-12-20T06:26:18;14.63;;;10.23;;
42000;SDS011;27689;48.390;10.856;2022-12-20T06:29:03;11.77;;;9.82;;
42000;SDS011;27689;48.390;10.856;2022-12-20T06:31:49;12.75;;;9.48;;
42000;SDS011;27689;48.390;10.856;2022-12-20T06:34:33;13.13;;;9.75;;
42000;SDS011;27689;48.390;10.856;2022-12-20T06:37:17;15.88;;;10.95;;
42000;SDS011;27689;48.390;10.856;2022-12-20T06:40:02;12.63;;;10.18;;
42000;SDS011;27689;48.390;10.856;2022-12-20T06:42:47;12.73;;;9.30;;
42000;SDS011;27689;48.390;10.856;2022-12-20T06:45:32;12.00;;;9.35;;
42000;SDS011;27689;48.390;10.856;2022-12-20T06:48:17;12.27;;;8.77;;
42000;SDS011;27689;48.390;10.856;2022-12-20T06:51:01;12.45;;;9.00;;
42000;SDS011;27689;48.390;10.856;2022-12-20T06:53:45;14.40;;;10.88;;
42000;SDS011;27689;48.390;10.856;2022-12-20T06:56:29;14.98;;;10.20;;
42000;SDS011;27689;48.390;10.856;2022-12-20T06:59:13;14.82;;;9.90;;
42000;SDS011;27689;48.390;10.856;2022-12-20T07:01:56;14.60;;;11.68;;
42000;SDS011;27689;48.390;10.856;2022-12-20T07:04:40;15.15;;;10.70;;
42000;SDS011;27689;48.390;10.856;2022-12-20T07:07:25;14.95;;;10.48;;
42000;SDS011;27689;48.390;10.856;2022-12-20T07:10:09;16.05;;;11.40;;
42000;SDS011;27689;48.390;10.856;2022-12-20T07:12:54;15.32;;;11.55;;
42000;SDS011;27689;48.390;10.856;2022-12-20T07:15:38;15.48;;;10.25;;
42000;SDS011;27689;48.390;10.856;2022-12-20T07:18:22;16.35;;;11.30;;
42000;SDS011;27689;48.390;10.856;2022-12-20T07:21:06;15.48;;;10.55;;
42000;SDS011;27689;48.390;10.856;2022-12-20T07:23:50;14.57;;;10.90;;
42000;SDS011;27689;48.390;10.856;2022-12-20T07:26:34;14.05;;;11.20;;
42000;SDS011;27689;48.390;10.856;2022-12-20T07:29:18;16.60;;;11.15;;
42000;SDS011;27689;48.390;10.856;2022-12-20T07:32:02;18.92;;;11.80;;
42000;SDS011;27689;48.390;10.856;2022-12-20T07:34:46;16.17;;;10.25;;
42000;SDS011;27689;48.390;10.856;2022-12-20T07:37:30;13.70;;;9.50;;
42000;SDS011;27689;48.390;10.856;2022-12-20T07:40:14;12.63;;;8.90;;
42000;SDS011;27689;48.390;10.856;2022-12-20T07:42:59;15.15;;;9.00;;
42000;SDS011;27689;48.390;10.856;2022-12-20T07:45:42;12.98;;;9.20;;
42000;SDS011;27689;48.390;10.856;2022-12-20T07:48:27;10.90;;;8.35;;
42000;SDS011;27689;48.390;10.856;2022-12-20T07:51:12;11.02;;;8.63;;
42000;SDS011;27689;48.390;10.856;2022-12-20T07:54:05;13.60;;;9.52;;
42000;SDS011;27689;48.390;10.856;2022-12-20T07:56:52;15.23;;;9.85;;
42000;SDS011;27689;48.390;10.856;2022-12-20T07:59:41;11.10;;;8.63;;
42000;SDS011;27689;48.390;10.856;2022-12-20T08:02:35;12.65;;;8.60;;
42000;SDS011;27689;48.390;10.856;2022-12-20T08:05:22;11.60;;;8.52;;
42000;SDS011;27689;48.390;10.856;2022-12-20T08:08:06;11.60;;;7.65;;
42000;SDS011;27689;48.390;10.856;2022-12-20T08:10:51;11.48;;;8.40;;
42000;SDS011;27689;48.390;10.856;2022-12-20T08:13:35;11.18;;;7.97;;
42000;SDS011;27689;48.390;10.856;2022-12-20T08:16:20;10.30;;;8.18;;
42000;SDS011;27689;48.390;10.856;2022-12-20T08:19:04;14.27;;;8.23;;
42000;SDS011;27689;48.390;10.856;2022-12-20T08:21:48;10.27;;;8.27;;
42000;SDS011;27689;48.390;10.856;2022-12-20T08:24:32;10.98;;;8.80;;
42000;SDS011;27689;48.390;10.856;2022-12-20T08:27:17;14.52;;;9.80;;
42000;SDS011;27689;48.390;10.856;2022-12-20T08:30:01;14.50;;;9.85;;
42000;SDS011;27689;48.390;10.856;2022-12-20T08:32:45;16.52;;;10.15;;
42000;SDS011;27689;48.390;10.856;2022-12-20T08:35:29;16.58;;;12.02;;
42000;SDS011;27689;48.390;10.856;2022-12-20T08:38:13;18.58;;;11.90;;
42000;SDS011;27689;48.390;10.856;2022-12-20T08:41:01;17.13;;;12.60;;
42000;SDS011;27689;48.390;10.856;2022-12-20T08:43:50;16.40;;;12.70;;
42000;SDS011;27689;48.390;10.856;2022-12-20T08:46:35;15.68;;;11.82;;
42000;SDS011;27689;48.390;10.856;2022-12-20T08:49:19;20.20;;;13.23;;
42000;SDS011;27689;48.390;10.856;2022-12-20T08:52:03;19.02;;;13.43;;
42000;SDS011;27689;48.390;10.856;2022-12-20T08:54:47;15.18;;;12.32;;
42000;SDS011;27689;48.390;10.856;2022-12-20T08:57:31;17.13;;;12.93;;
42000;SDS011;27689;48.390;10.856;2022-12-20T09:00:15;21.55;;;15.95;;
42000;SDS011;27689;48.390;10.856;2022-12-20T09:02:59;27.27;;;17.65;;
42000;SDS011;27689;48.390;10.856;2022-12-20T09:05:44;25.55;;;18.33;;
42000;SDS011;27689;48.390;10.856;2022-12-20T09:08:29;28.88;;;19.85;;
42000;SDS011;27689;48.390;10.856;2022-12-20T09:11:21;30.75;;;20.15;;
42000;SDS011;27689;48.390;10.856;2022-12-20T09:14:07;31.10;;;20.80;;
42000;SDS011;27689;48.390;10.856;2022-12-20T09:16:52;39.33;;;27.63;;
42000;SDS011;27689;48.390;10.856;2022-12-20T09:19:36;39.17;;;27.00;;
42000;SDS011;27689;48.390;10.856;2022-12-20T09:22:20;36.03;;;25.85;;
42000;SDS011;27689;48.390;10.856;2022-12-20T09:25:05;33.70;;;25.17;;
42000;SDS011;27689;48.390;10.856;2022-12-20T09:27:49;29.80;;;22.60;;
42000;SDS011;27689;48.390;10.856;2022-12-20T09:30:33;27.00;;;20.48;;
42000;SDS011;27689;48.390;10.856;2022-12-20T09:33:17;27.63;;;20.27;;
42000;SDS011;27689;48.390;10.856;2022-12-20T09:36:02;26.65;;;19.85;;
42000;SDS011;27689;48.390;10.856;2022-12-20T09:38:47;29.38;;;20.02;;
42000;SDS011;27689;48.390;10.856;2022-12-20T09:41:32;26.45;;;19.58;;
42000;SDS011;27689;48.390;10.856;2022-12-20T09:44:28;26.92;;;20.15;;
42000;SDS011;27689;48.390;10.856;2022-12-20T09:47:15;29.00;;;21.00;;
42000;SDS011;27689;48.390;10.856;2022-12-20T09:50:03;30.30;;;23.17;;
42000;SDS011;27689;48.390;10.856;2022-12-20T09:53:01;29.05;;;21.42;;
42000;SDS011;27689;48.390;10.856;2022-12-20T09:55:58;33.50;;;23.40;;
42000;SDS011;27689;48.390;10.856;2022-12-20T10:01:33;39.50;;;26.13;;
42000;SDS011;27689;48.390;10.856;2022-12-20T10:04:19;33.15;;;25.30;;
42000;SDS011;27689;48.390;10.856;2022-12-20T10:07:13;32.97;;;23.85;;
42000;SDS011;27689;48.390;10.856;2022-12-20T10:19:16;38.55;;;27.70;;
42000;SDS011;27689;48.390;10.856;2022-12-20T10:22:24;38.78;;;26.25;;
42000;SDS011;27689;48.390;10.856;2022-12-20T10:28:03;38.97;;;27.73;;
42000;SDS011;27689;48.390;10.856;2022-12-20T10:30:53;31.25;;;22.58;;
42000;SDS011;27689;48.390;10.856;2022-12-20T10:33:39;25.38;;;18.42;;
42000;SDS011;27689;48.390;10.856;2022-12-20T10:36:25;25.17;;;17.70;;
42000;SDS011;27689;48.390;10.856;2022-12-20T10:39:16;29.02;;;18.70;;
42000;SDS011;27689;48.390;10.856;2022-12-20T10:42:23;20.17;;;15.70;;
42000;SDS011;27689;48.390;10.856;2022-12-20T10:48:28;20.63;;;16.85;;
42000;SDS011;27689;48.390;10.856;2022-12-20T10:51:16;18.90;;;14.40;;
42000;SDS011;27689;48.390;10.856;2022-12-20T10:54:02;29.55;;;18.88;;
42000;SDS011;27689;48.390;10.856;2022-12-20T10:57:13;23.17;;;15.65;;
42000;SDS011;27689;48.390;10.856;2022-12-20T11:00:00;19.65;;;15.05;;
42000;SDS011;27689;48.390;10.856;2022-12-20T11:03:00;20.15;;;14.50;;
42000;SDS011;27689;48.390;10.856;2022-12-20T11:05:57;151.60;;;81.03;;
42000;SDS011;27689;48.390;10.856;2022-12-20T11:08:44;19.05;;;15.15;;
42000;SDS011;27689;48.390;10.856;2022-12-20T11:11:28;18.38;;;14.10;;
42000;SDS011;27689;48.390;10.856;2022-12-20T11:14:13;20.30;;;15.13;;
42000;SDS011;27689;48.390;10.856;2022-12-20T11:16:58;26.67;;;16.50;;
42000;SDS011;27689;48.390;10.856;2022-12-20T11:19:53;22.45;;;15.40;;
42000;SDS011;27689;48.390;10.856;2022-12-20T11:29:23;21.60;;;16.60;;
42000;SDS011;27689;48.390;10.856;2022-12-20T11:35:21;23.73;;;15.93;;
42000;SDS011;27689;48.390;10.856;2022-12-20T11:38:33;19.85;;;13.95;;
42000;SDS011;27689;48.390;10.856;2022-12-20T11:41:28;19.90;;;13.65;;
42000;SDS011;27689;48.390;10.856;2022-12-20T11:44:24;23.85;;;16.45;;
42000;SDS011;27689;48.390;10.856;2022-12-20T11:50:39;17.75;;;14.13;;
42000;SDS011;27689;48.390;10.856;2022-12-20T11:53:42;18.63;;;13.55;;
42000;SDS011;27689;48.390;10.856;2022-12-20T11:56:34;22.02;;;14.23;;
42000;SDS011;27689;48.390;10.856;2022-12-20T12:02:36;22.33;;;15.15;;
42000;SDS011;27689;48.390;10.856;2022-12-20T12:12:18;22.67;;;16.15;;
42000;SDS011;27689;48.390;10.856;2022-12-20T12:15:27;22.73;;;16.42;;
42000;SDS011;27689;48.390;10.856;2022-12-20T12:27:14;29.00;;;16.42;;
42000;SDS011;27689;48.390;10.856;2022-12-20T12:30:05;23.55;;;15.35;;
42000;SDS011;27689;48.390;10.856;2022-12-20T12:32:54;23.50;;;16.27;;
42000;SDS011;27689;48.390;10.856;2022-12-20T12:35:46;24.02;;;18.60;;
42000;SDS011;27689;48.390;10.856;2022-12-20T12:38:47;24.60;;;18.38;;
42000;SDS011;27689;48.390;10.856;2022-12-20T12:47:53;22.88;;;16.95;;
42000;SDS011;27689;48.390;10.856;2022-12-20T12:50:41;27.20;;;18.08;;
42000;SDS011;27689;48.390;10.856;2022-12-20T12:53:35;29.95;;;18.13;;
42000;SDS011;27689;48.390;10.856;2022-12-20T12:59:21;28.65;;;19.67;;
42000;SDS011;27689;48.390;10.856;2022-12-20T13:02:26;26.33;;;19.05;;
42000;SDS011;27689;48.390;10.856;2022-12-20T13:08:15;25.98;;;19.05;;
42000;SDS011;27689;48.390;10.856;2022-12-20T13:11:00;23.85;;;17.95;;
42000;SDS011;27689;48.390;10.856;2022-12-20T13:13:46;25.08;;;18.08;;
42000;SDS011;27689;48.390;10.856;2022-12-20T13:16:30;24.45;;;16.58;;
42000;SDS011;27689;48.390;10.856;2022-12-20T13:19:29;20.27;;;15.00;;
42000;SDS011;27689;48.390;10.856;2022-12-20T13:22:20;23.58;;;15.80;;
42000;SDS011;27689;48.390;10.856;2022-12-20T13:25:26;21.98;;;15.77;;
42000;SDS011;27689;48.390;10.856;2022-12-20T13:34:22;24.95;;;16.95;;
42000;SDS011;27689;48.390;10.856;2022-12-20T13:40:43;23.13;;;17.25;;
42000;SDS011;27689;48.390;10.856;2022-12-20T13:43:32;20.85;;;14.93;;
42000;SDS011;27689;48.390;10.856;2022-12-20T13:46:31;19.20;;;14.73;;
42000;SDS011;27689;48.390;10.856;2022-12-20T13:49:33;19.42;;;14.40;;
42000;SDS011;27689;48.390;10.856;2022-12-20T13:52:23;16.52;;;13.50;;
42000;SDS011;27689;48.390;10.856;2022-12-20T13:55:16;19.58;;;14.43;;
42000;SDS011;27689;48.390;10.856;2022-12-20T13:58:17;20.73;;;14.45;;
42000;SDS011;27689;48.390;10.856;2022-12-20T14:01:06;19.05;;;14.98;;
42000;SDS011;27689;48.390;10.856;2022-12-20T14:03:54;23.58;;;14.48;;
42000;SDS011;27689;48.390;10.856;2022-12-20T14:06:38;26.87;;;15.87;;
42000;SDS011;27689;48.390;10.856;2022-12-20T14:12:15;20.40;;;15.35;;
42000;SDS011;27689;48.390;10.856;2022-12-20T14:14:59;19.25;;;13.90;;
42000;SDS011;27689;48.390;10.856;2022-12-20T14:17:43;24.52;;;15.98;;
42000;SDS011;27689;48.390;10.856;2022-12-20T14:20:28;28.30;;;18.77;;
42000;SDS011;27689;48.390;10.856;2022-12-20T14:23:21;26.65;;;18.92;;
42000;SDS011;27689;48.390;10.856;2022-12-20T14:26:13;21.73;;;16.20;;
42000;SDS011;27689;48.390;10.856;2022-12-20T14:28:59;17.20;;;14.75;;
42000;SDS011;27689;48.390;10.856;2022-12-20T14:31:44;21.35;;;16.30;;
42000;SDS011;27689;48.390;10.856;2022-12-20T14:34:31;20.98;;;14.80;;
42000;SDS011;27689;48.390;10.856;2022-12-20T14:37:29;23.85;;;16.90;;
42000;SDS011;27689;48.390;10.856;2022-12-20T14:40:15;22.60;;;16.60;;
42000;SDS011;27689;48.390;10.856;2022-12-20T14:43:13;23.20;;;16.90;;
42000;SDS011;27689;48.390;10.856;2022-12-20T14:46:18;21.15;;;15.15;;
42000;SDS011;27689;48.390;10.856;2022-12-20T14:52:33;24.23;;;16.73;;
42000;SDS011;27689;48.390;10.856;2022-12-20T14:58:34;33.75;;;19.42;;
42000;SDS011;27689;48.390;10.856;2022-12-20T15:01:19;36.80;;;22.30;;
42000;SDS011;27689;48.390;10.856;2022-12-20T15:04:21;36.70;;;23.42;;
42000;SDS011;27689;48.390;10.856;2022-12-20T15:07:27;39.40;;;25.30;;
42000;SDS011;27689;48.390;10.856;2022-12-20T15:10:12;31.40;;;21.13;;
42000;SDS011;27689;48.390;10.856;2022-12-20T15:12:56;29.60;;;18.67;;
42000;SDS011;27689;48.390;10.856;2022-12-20T15:15:40;25.50;;;18.37;;
42000;SDS011;27689;48.390;10.856;2022-12-20T15:18:25;27.42;;;18.77;;
42000;SDS011;27689;48.390;10.856;2022-12-20T15:21:16;26.92;;;18.35;;
42000;SDS011;27689;48.390;10.856;2022-12-20T15:24:03;26.23;;;18.05;;
42000;SDS011;27689;48.390;10.856;2022-12-20T15:26:51;23.15;;;16.77;;
42000;SDS011;27689;48.390;10.856;2022-12-20T15:29:36;23.85;;;17.33;;
42000;SDS011;27689;48.390;10.856;2022-12-20T15:32:23;24.38;;;16.10;;
42000;SDS011;27689;48.390;10.856;2022-12-20T15:35:12;23.08;;;16.55;;
42000;SDS011;27689;48.390;10.856;2022-12-20T15:37:57;24.38;;;17.75;;
42000;SDS011;27689;48.390;10.856;2022-12-20T15:40:42;18.70;;;15.38;;
42000;SDS011;27689;48.390;10.856;2022-12-20T15:43:27;21.73;;;15.98;;
42000;SDS011;27689;48.390;10.856;2022-12-20T15:46:20;23.17;;;16.15;;
42000;SDS011;27689;48.390;10.856;2022-12-20T15:49:04;20.50;;;14.38;;
42000;SDS011;27689;48.390;10.856;2022-12-20T15:51:49;25.17;;;19.50;;
42000;SDS011;27689;48.390;10.856;2022-12-20T15:54:35;23.17;;;18.42;;
42000;SDS011;27689;48.390;10.856;2022-12-20T15:57:23;24.15;;;17.45;;
42000;SDS011;27689;48.390;10.856;2022-12-20T16:00:21;28.13;;;20.35;;
42000;SDS011;27689;48.390;10.856;2022-12-20T16:03:07;23.38;;;17.02;;
42000;SDS011;27689;48.390;10.856;2022-12-20T16:05:59;26.23;;;18.38;;
42000;SDS011;27689;48.390;10.856;2022-12-20T16:08:43;27.83;;;21.27;;
42000;SDS011;27689;48.390;10.856;2022-12-20T16:11:28;24.67;;;18.05;;
42000;SDS011;27689;48.390;10.856;2022-12-20T16:14:16;24.45;;;17.30;;
42000;SDS011;27689;48.390;10.856;2022-12-20T16:17:03;30.15;;;20.92;;
42000;SDS011;27689;48.390;10.856;2022-12-20T16:19:48;25.08;;;19.38;;
42000;SDS011;27689;48.390;10.856;2022-12-20T16:22:32;25.25;;;18.30;;
42000;SDS011;27689;48.390;10.856;2022-12-20T16:25:22;25.63;;;19.50;;
42000;SDS011;27689;48.390;10.856;2022-12-20T16:28:12;27.27;;;20.42;;
42000;SDS011;27689;48.390;10.856;2022-12-20T16:30:56;31.03;;;22.43;;
42000;SDS011;27689;48.390;10.856;2022-12-20T16:33:40;39.75;;;24.30;;
42000;SDS011;27689;48.390;10.856;2022-12-20T16:36:24;37.95;;;25.13;;
42000;SDS011;27689;48.390;10.856;2022-12-20T16:39:09;35.28;;;25.08;;
42000;SDS011;27689;48.390;10.856;2022-12-20T16:41:53;34.33;;;24.25;;
42000;SDS011;27689;48.390;10.856;2022-12-20T16:44:37;33.00;;;24.10;;
42000;SDS011;27689;48.390;10.856;2022-12-20T16:47:25;29.83;;;23.42;;
42000;SDS011;27689;48.390;10.856;2022-12-20T16:50:09;39.20;;;27.17;;
42000;SDS011;27689;48.390;10.856;2022-12-20T16:52:53;38.42;;;27.23;;
42000;SDS011;27689;48.390;10.856;2022-12-20T16:55:37;33.42;;;24.88;;
42000;SDS011;27689;48.390;10.856;2022-12-20T16:58:21;34.10;;;24.45;;
42000;SDS011;27689;48.390;10.856;2022-12-20T17:01:07;41.97;;;26.95;;
42000;SDS011;27689;48.390;10.856;2022-12-20T17:03:57;37.67;;;26.45;;
42000;SDS011;27689;48.390;10.856;2022-12-20T17:06:42;34.03;;;26.20;;
42000;SDS011;27689;48.390;10.856;2022-12-20T17:09:27;31.00;;;23.08;;
42000;SDS011;27689;48.390;10.856;2022-12-20T17:12:14;38.55;;;26.23;;
42000;SDS011;27689;48.390;10.856;2022-12-20T17:15:00;34.47;;;24.52;;
42000;SDS011;27689;48.390;10.856;2022-12-20T17:17:44;39.58;;;26.35;;
42000;SDS011;27689;48.390;10.856;2022-12-20T17:20:29;31.02;;;21.73;;
42000;SDS011;27689;48.390;10.856;2022-12-20T17:23:13;29.25;;;19.92;;
42000;SDS011;27689;48.390;10.856;2022-12-20T17:25:58;36.03;;;24.00;;
42000;SDS011;27689;48.390;10.856;2022-12-20T17:28:42;30.90;;;22.73;;
42000;SDS011;27689;48.390;10.856;2022-12-20T17:34:23;31.38;;;23.52;;
42000;SDS011;27689;48.390;10.856;2022-12-20T17:37:09;30.73;;;21.63;;
42000;SDS011;27689;48.390;10.856;2022-12-20T17:39:53;24.05;;;19.35;;
42000;SDS011;27689;48.390;10.856;2022-12-20T17:42:37;25.52;;;19.17;;
42000;SDS011;27689;48.390;10.856;2022-12-20T17:45:22;24.65;;;18.92;;
42000;SDS011;27689;48.390;10.856;2022-12-20T17:48:08;29.58;;;22.35;;